sensor_id;sensor_type;location;lat;lon;timestamp;pressure;altitude;pressure_sealevel;temperature;humidity
18795;BME280;29610;49.022;12.114;2023-05-21T00:02:35;97477.63;;;19.01;100.00
18795;BME280;29610;49.022;12.114;2023-05-21T00:05:24;97471.34;;;19.04;100.00
18795;BME280;29610;49.022;12.114;2023-05-21T00:08:13;97466.56;;;18.93;100.00
18795;BME280;29610;49.022;12.114;2023-05-21T00:11:02;97462.16;;;18.85;100.00
18795;BME280;29610;49.022;12.114;2023-05-21T00:13:50;97459.72;;;18.77;100.00
18795;BME280;29610;49.022;12.114;2023-05-21T00:16:40;97467.72;;;18.89;100.00
18795;BME280;29610;49.022;12.114;2023-05-21T00:19:31;97454.31;;;18.87;100.00
18795;BME280;29610;49.022;12.114;2023-05-21T00:22:20;97453.56;;;18.94;100.00
18795;BME280;29610;49.022;12.114;2023-05-21T00:25:10;97449.69;;;18.99;100.00
18795;BME280;29610;49.022;12.114;2023-05-21T00:27:59;97450.38;;;18.88;100.00
18795;BME280;29610;49.022;12.114;2023-05-21T00:30:48;97449.69;;;18.99;100.00
18795;BME280;29610;49.022;12.114;2023-05-21T00:33:38;97454.41;;;18.98;100.00
18795;BME280;29610;49.022;12.114;2023-05-21T00:36:27;97450.13;;;19.04;100.00
18795;BME280;29610;49.022;12.114;2023-05-21T00:39:17;97450.16;;;19.08;100.00
18795;BME280;29610;49.022;12.114;2023-05-21T00:42:07;97460.44;;;19.14;100.00
18795;BME280;29610;49.022;12.114;2023-05-21T00:44:55;97456.47;;;19.08;100.00
18795;BME280;29610;49.022;12.114;2023-05-21T00:47:45;97453.59;;;18.98;100.00
18795;BME280;29610;49.022;12.114;2023-05-21T00:50:36;97446.00;;;18.80;100.00
18795;BME280;29610;49.022;12.114;2023-05-21T00:53:26;97448.28;;;18.75;100.00
18795;BME280;29610;49.022;12.114;2023-05-21T00:56:15;97445.53;;;18.71;100.00
18795;BME280;29610;49.022;12.114;2023-05-21T00:59:03;97445.06;;;18.66;100.00
18795;BME280;29610;49.022;12.114;2023-05-21T01:01:52;97443.09;;;18.63;100.00
18795;BME280;29610;49.022;12.114;2023-05-21T01:04:43;97445.66;;;18.45;100.00
18795;BME280;29610;49.022;12.114;2023-05-21T01:07:37;97445.09;;;18.69;100.00
18795;BME280;29610;49.022;12.114;2023-05-21T01:10:26;97449.47;;;18.74;100.00
18795;BME280;29610;49.022;12.114;2023-05-21T01:13:16;97449.44;;;18.70;100.00
18795;BME280;29610;49.022;12.114;2023-05-21T01:16:07;97447.03;;;18.65;100.00
18795;BME280;29610;49.022;12.114;2023-05-21T01:18:57;97441.13;;;18.67;100.00
18795;BME280;29610;49.022;12.114;2023-05-21T01:21:50;97439.19;;;18.67;100.00
18795;BME280;29610;49.022;12.114;2023-05-21T01:24:44;97436.34;;;18.57;100.00
18795;BME280;29610;49.022;12.114;2023-05-21T01:27:34;97436.72;;;18.55;100.00
18795;BME280;29610;49.022;12.114;2023-05-21T01:30:24;97432.47;;;18.61;100.00
18795;BME280;29610;49.022;12.114;2023-05-21T01:33:18;97436.78;;;18.62;100.00
18795;BME280;29610;49.022;12.114;2023-05-21T01:36:17;97434.38;;;18.57;100.00
18795;BME280;29610;49.022;12.114;2023-05-21T01:39:18;97444.22;;;18.58;100.00
18795;BME280;29610;49.022;12.114;2023-05-21T01:42:15;97435.13;;;18.54;100.00
18795;BME280;29610;49.022;12.114;2023-05-21T01:45:06;97434.63;;;18.42;100.00
18795;BME280;29610;49.022;12.114;2023-05-21T01:47:57;97429.50;;;18.40;100.00
18795;BME280;29610;49.022;12.114;2023-05-21T01:50:47;97434.38;;;18.21;100.00
18795;BME280;29610;49.022;12.114;2023-05-21T01:53:36;97430.38;;;18.15;100.00
18795;BME280;29610;49.022;12.114;2023-05-21T01:56:25;97425.22;;;18.10;100.00
18795;BME280;29610;49.022;12.114;2023-05-21T01:59:16;97424.88;;;18.15;100.00
18795;BME280;29610;49.022;12.114;2023-05-21T02:02:07;97423.47;;;17.95;100.00
18795;BME280;29610;49.022;12.114;2023-05-21T02:04:56;97414.44;;;17.94;100.00
18795;BME280;29610;49.022;12.114;2023-05-21T02:07:46;97419.59;;;17.99;100.00
18795;BME280;29610;49.022;12.114;2023-05-21T02:10:35;97427.31;;;17.87;100.00
18795;BME280;29610;49.022;12.114;2023-05-21T02:13:24;97424.13;;;17.85;100.00
18795;BME280;29610;49.022;12.114;2023-05-21T02:16:15;97430.44;;;17.85;100.00
18795;BME280;29610;49.022;12.114;2023-05-21T02:19:04;97422.84;;;17.75;100.00
18795;BME280;29610;49.022;12.114;2023-05-21T02:21:53;97425.03;;;17.63;100.00
18795;BME280;29610;49.022;12.114;2023-05-21T02:24:42;97421.13;;;17.64;100.00
18795;BME280;29610;49.022;12.114;2023-05-21T02:27:31;97428.88;;;17.55;100.00
18795;BME280;29610;49.022;12.114;2023-05-21T02:30:21;97417.59;;;17.63;100.00
18795;BME280;29610;49.022;12.114;2023-05-21T02:33:11;97411.56;;;17.54;100.00
18795;BME280;29610;49.022;12.114;2023-05-21T02:36:01;97423.25;;;17.47;100.00
18795;BME280;29610;49.022;12.114;2023-05-21T02:38:51;97414.28;;;17.50;100.00
18795;BME280;29610;49.022;12.114;2023-05-21T02:41:40;97417.59;;;17.37;100.00
18795;BME280;29610;49.022;12.114;2023-05-21T02:44:28;97425.59;;;17.19;100.00
18795;BME280;29610;49.022;12.114;2023-05-21T02:47:19;97421.97;;;17.12;100.00
18795;BME280;29610;49.022;12.114;2023-05-21T02:50:10;97419.31;;;17.19;100.00
18795;BME280;29610;49.022;12.114;2023-05-21T02:53:04;97420.16;;;16.97;100.00
18795;BME280;29610;49.022;12.114;2023-05-21T02:55:54;97421.78;;;17.01;100.00
18795;BME280;29610;49.022;12.114;2023-05-21T02:58:44;97419.34;;;16.96;100.00
18795;BME280;29610;49.022;12.114;2023-05-21T03:01:33;97425.34;;;16.79;100.00
18795;BME280;29610;49.022;12.114;2023-05-21T03:04:22;97426.41;;;16.71;100.00
18795;BME280;29610;49.022;12.114;2023-05-21T03:07:13;97423.72;;;16.52;100.00
18795;BME280;29610;49.022;12.114;2023-05-21T03:10:05;97424.72;;;16.44;100.00
18795;BME280;29610;49.022;12.114;2023-05-21T03:12:54;97426.34;;;16.45;100.00
18795;BME280;29610;49.022;12.114;2023-05-21T03:15:43;97422.00;;;16.44;100.00
18795;BME280;29610;49.022;12.114;2023-05-21T03:18:33;97415.97;;;16.35;100.00
18795;BME280;29610;49.022;12.114;2023-05-21T03:21:22;97427.63;;;16.51;100.00
18795;BME280;29610;49.022;12.114;2023-05-21T03:24:12;97425.56;;;16.45;100.00
18795;BME280;29610;49.022;12.114;2023-05-21T03:27:01;97419.19;;;16.41;100.00
18795;BME280;29610;49.022;12.114;2023-05-21T03:29:52;97424.78;;;16.25;100.00
18795;BME280;29610;49.022;12.114;2023-05-21T03:32:42;97413.59;;;16.34;100.00
18795;BME280;29610;49.022;12.114;2023-05-21T03:35:31;97425.75;;;16.36;100.00
18795;BME280;29610;49.022;12.114;2023-05-21T03:38:20;97425.09;;;16.43;100.00
18795;BME280;29610;49.022;12.114;2023-05-21T03:41:12;97424.03;;;16.47;100.00
18795;BME280;29610;49.022;12.114;2023-05-21T03:44:04;97424.53;;;16.53;100.00
18795;BME280;29610;49.022;12.114;2023-05-21T03:47:05;97425.50;;;16.64;100.00
18795;BME280;29610;49.022;12.114;2023-05-21T03:49:55;97425.00;;;16.81;100.00
18795;BME280;29610;49.022;12.114;2023-05-21T03:52:44;97428.22;;;16.86;100.00
18795;BME280;29610;49.022;12.114;2023-05-21T03:55:33;97425.84;;;16.85;100.00
18795;BME280;29610;49.022;12.114;2023-05-21T03:58:24;97428.53;;;16.81;100.00
18795;BME280;29610;49.022;12.114;2023-05-21T04:01:13;97421.34;;;16.99;100.00
18795;BME280;29610;49.022;12.114;2023-05-21T04:04:04;97430.97;;;17.12;100.00
18795;BME280;29610;49.022;12.114;2023-05-21T04:06:54;97426.97;;;17.06;100.00
18795;BME280;29610;49.022;12.114;2023-05-21T04:09:43;97431.94;;;16.97;100.00
18795;BME280;29610;49.022;12.114;2023-05-21T04:12:33;97424.66;;;17.08;100.00
18795;BME280;29610;49.022;12.114;2023-05-21T04:15:25;97428.50;;;17.04;100.00
18795;BME280;29610;49.022;12.114;2023-05-21T04:18:15;97419.59;;;17.10;100.00
18795;BME280;29610;49.022;12.114;2023-05-21T04:21:04;97424.22;;;17.06;100.00
18795;BME280;29610;49.022;12.114;2023-05-21T04:23:54;97416.88;;;17.14;100.00
18795;BME280;29610;49.022;12.114;2023-05-21T04:27:06;97419.41;;;17.26;100.00
18795;BME280;29610;49.022;12.114;2023-05-21T04:29:56;97421.59;;;17.43;100.00
18795;BME280;29610;49.022;12.114;2023-05-21T04:32:46;97417.63;;;17.67;100.00
18795;BME280;29610;49.022;12.114;2023-05-21T04:35:35;97427.97;;;17.77;100.00
18795;BME280;29610;49.022;12.114;2023-05-21T04:38:24;97429.81;;;17.99;100.00
18795;BME280;29610;49.022;12.114;2023-05-21T04:41:13;97430.38;;;18.15;100.00
18795;BME280;29610;49.022;12.114;2023-05-21T04:44:07;97428.47;;;18.19;100.00
18795;BME280;29610;49.022;12.114;2023-05-21T04:46:56;97432.94;;;18.34;100.00
18795;BME280;29610;49.022;12.114;2023-05-21T04:49:46;97426.38;;;18.42;100.00
18795;BME280;29610;49.022;12.114;2023-05-21T04:52:38;97423.31;;;18.50;100.00
18795;BME280;29610;49.022;12.114;2023-05-21T04:55:27;97423.97;;;18.80;100.00
18795;BME280;29610;49.022;12.114;2023-05-21T04:58:16;97431.78;;;18.75;100.00
18795;BME280;29610;49.022;12.114;2023-05-21T05:01:06;97432.91;;;19.18;100.00
18795;BME280;29610;49.022;12.114;2023-05-21T05:03:59;97426.53;;;19.07;100.00
18795;BME280;29610;49.022;12.114;2023-05-21T05:06:49;97427.56;;;19.39;100.00
18795;BME280;29610;49.022;12.114;2023-05-21T05:09:39;97423.31;;;19.55;100.00
18795;BME280;29610;49.022;12.114;2023-05-21T05:12:28;97428.50;;;19.64;100.00
18795;BME280;29610;49.022;12.114;2023-05-21T05:15:17;97418.78;;;19.98;100.00
18795;BME280;29610;49.022;12.114;2023-05-21T05:18:06;97426.78;;;20.20;100.00
18795;BME280;29610;49.022;12.114;2023-05-21T05:20:56;97431.50;;;20.27;100.00
18795;BME280;29610;49.022;12.114;2023-05-21T05:23:46;97428.00;;;20.37;100.00
18795;BME280;29610;49.022;12.114;2023-05-21T05:26:34;97422.44;;;20.26;100.00
18795;BME280;29610;49.022;12.114;2023-05-21T05:29:23;97427.66;;;20.70;100.00
18795;BME280;29610;49.022;12.114;2023-05-21T05:32:12;97428.03;;;20.55;100.00
18795;BME280;29610;49.022;12.114;2023-05-21T05:35:01;97422.56;;;21.00;100.00
18795;BME280;29610;49.022;12.114;2023-05-21T05:37:50;97426.44;;;20.54;100.00
18795;BME280;29610;49.022;12.114;2023-05-21T05:40:40;97423.28;;;20.38;100.00
18795;BME280;29610;49.022;12.114;2023-05-21T05:43:29;97416.94;;;20.30;100.00
18795;BME280;29610;49.022;12.114;2023-05-21T05:46:19;97413.47;;;20.82;100.00
18795;BME280;29610;49.022;12.114;2023-05-21T05:49:08;97416.25;;;21.17;100.00
18795;BME280;29610;49.022;12.114;2023-05-21T05:51:56;97416.19;;;21.45;100.00
18795;BME280;29610;49.022;12.114;2023-05-21T05:54:45;97416.50;;;21.68;100.00
18795;BME280;29610;49.022;12.114;2023-05-21T05:57:36;97418.09;;;21.66;100.00
18795;BME280;29610;49.022;12.114;2023-05-21T06:00:32;97416.88;;;21.85;100.00
18795;BME280;29610;49.022;12.114;2023-05-21T06:03:22;97421.91;;;22.11;100.00
18795;BME280;29610;49.022;12.114;2023-05-21T06:06:13;97425.81;;;22.13;100.00
18795;BME280;29610;49.022;12.114;2023-05-21T06:09:04;97426.22;;;22.19;100.00
18795;BME280;29610;49.022;12.114;2023-05-21T06:11:53;97416.25;;;22.32;100.00
18795;BME280;29610;49.022;12.114;2023-05-21T06:14:43;97423.31;;;22.40;100.00
18795;BME280;29610;49.022;12.114;2023-05-21T06:17:33;97432.59;;;22.74;100.00
18795;BME280;29610;49.022;12.114;2023-05-21T06:20:22;97425.81;;;22.85;100.00
18795;BME280;29610;49.022;12.114;2023-05-21T06:23:11;97431.97;;;22.52;100.00
18795;BME280;29610;49.022;12.114;2023-05-21T06:26:01;97422.59;;;22.90;100.00
18795;BME280;29610;49.022;12.114;2023-05-21T06:28:51;97426.06;;;23.01;100.00
18795;BME280;29610;49.022;12.114;2023-05-21T06:31:41;97427.94;;;22.64;100.00
18795;BME280;29610;49.022;12.114;2023-05-21T06:34:30;97426.66;;;22.75;100.00
18795;BME280;29610;49.022;12.114;2023-05-21T06:37:20;97431.75;;;22.84;100.00
18795;BME280;29610;49.022;12.114;2023-05-21T06:40:12;97428.91;;;22.94;100.00
18795;BME280;29610;49.022;12.114;2023-05-21T06:43:01;97427.72;;;22.92;100.00
18795;BME280;29610;49.022;12.114;2023-05-21T06:46:10;97425.59;;;23.13;100.00
18795;BME280;29610;49.022;12.114;2023-05-21T06:49:01;97419.03;;;23.38;100.00
18795;BME280;29610;49.022;12.114;2023-05-21T06:51:50;97423.22;;;23.53;100.00
18795;BME280;29610;49.022;12.114;2023-05-21T06:54:39;97421.06;;;23.34;100.00
18795;BME280;29610;49.022;12.114;2023-05-21T06:57:29;97421.44;;;23.36;100.00
18795;BME280;29610;49.022;12.114;2023-05-21T07:00:18;97419.03;;;23.75;100.00
18795;BME280;29610;49.022;12.114;2023-05-21T07:03:07;97434.53;;;23.32;100.00
18795;BME280;29610;49.022;12.114;2023-05-21T07:05:58;97428.47;;;24.14;100.00
18795;BME280;29610;49.022;12.114;2023-05-21T07:08:47;97430.09;;;24.42;100.00
18795;BME280;29610;49.022;12.114;2023-05-21T07:11:36;97430.03;;;24.76;100.00
18795;BME280;29610;49.022;12.114;2023-05-21T07:14:26;97417.97;;;25.09;100.00
18795;BME280;29610;49.022;12.114;2023-05-21T07:17:16;97431.50;;;25.07;100.00
18795;BME280;29610;49.022;12.114;2023-05-21T07:20:06;97419.78;;;25.42;100.00
18795;BME280;29610;49.022;12.114;2023-05-21T07:22:59;97422.09;;;25.89;100.00
18795;BME280;29610;49.022;12.114;2023-05-21T07:25:48;97412.94;;;25.89;100.00
18795;BME280;29610;49.022;12.114;2023-05-21T07:28:38;97421.38;;;24.97;100.00
18795;BME280;29610;49.022;12.114;2023-05-21T07:31:26;97418.66;;;25.16;100.00
18795;BME280;29610;49.022;12.114;2023-05-21T07:34:15;97421.81;;;25.41;100.00
18795;BME280;29610;49.022;12.114;2023-05-21T07:37:05;97411.16;;;26.54;100.00
18795;BME280;29610;49.022;12.114;2023-05-21T07:39:56;97407.25;;;27.03;100.00
18795;BME280;29610;49.022;12.114;2023-05-21T07:42:45;97414.63;;;27.09;100.00
18795;BME280;29610;49.022;12.114;2023-05-21T07:45:38;97417.78;;;27.27;100.00
18795;BME280;29610;49.022;12.114;2023-05-21T07:48:27;97408.22;;;26.61;100.00
18795;BME280;29610;49.022;12.114;2023-05-21T07:51:20;97407.00;;;27.30;100.00
18795;BME280;29610;49.022;12.114;2023-05-21T07:54:09;97408.53;;;27.75;100.00
18795;BME280;29610;49.022;12.114;2023-05-21T07:57:01;97404.78;;;28.23;100.00
18795;BME280;29610;49.022;12.114;2023-05-21T08:00:26;97413.47;;;28.00;100.00
18795;BME280;29610;49.022;12.114;2023-05-21T08:03:17;97410.59;;;27.59;100.00
18795;BME280;29610;49.022;12.114;2023-05-21T08:06:06;97411.63;;;27.65;100.00
18795;BME280;29610;49.022;12.114;2023-05-21T08:08:55;97415.00;;;28.42;100.00
18795;BME280;29610;49.022;12.114;2023-05-21T08:11:44;97413.25;;;28.86;100.00
18795;BME280;29610;49.022;12.114;2023-05-21T08:14:34;97412.34;;;29.01;100.00
18795;BME280;29610;49.022;12.114;2023-05-21T08:17:23;97409.81;;;29.41;100.00
18795;BME280;29610;49.022;12.114;2023-05-21T08:20:14;97416.41;;;28.88;100.00
18795;BME280;29610;49.022;12.114;2023-05-21T08:23:05;97420.06;;;28.06;100.00
18795;BME280;29610;49.022;12.114;2023-05-21T08:26:00;97413.16;;;28.23;100.00
18795;BME280;29610;49.022;12.114;2023-05-21T08:28:50;97416.81;;;28.48;100.00
18795;BME280;29610;49.022;12.114;2023-05-21T08:31:40;97419.75;;;28.57;100.00
18795;BME280;29610;49.022;12.114;2023-05-21T08:34:29;97421.28;;;28.96;100.00
18795;BME280;29610;49.022;12.114;2023-05-21T08:37:31;97421.75;;;29.20;100.00
18795;BME280;29610;49.022;12.114;2023-05-21T08:40:28;97424.22;;;29.05;100.00
18795;BME280;29610;49.022;12.114;2023-05-21T08:43:17;97409.81;;;27.58;100.00
18795;BME280;29610;49.022;12.114;2023-05-21T08:46:08;97416.22;;;27.43;100.00
18795;BME280;29610;49.022;12.114;2023-05-21T08:49:02;97418.06;;;27.33;100.00
18795;BME280;29610;49.022;12.114;2023-05-21T08:51:52;97413.75;;;26.45;100.00
18795;BME280;29610;49.022;12.114;2023-05-21T08:54:43;97408.28;;;26.57;100.00
18795;BME280;29610;49.022;12.114;2023-05-21T08:57:33;97417.69;;;26.63;100.00
18795;BME280;29610;49.022;12.114;2023-05-21T09:00:23;97411.09;;;26.57;100.00
18795;BME280;29610;49.022;12.114;2023-05-21T09:03:14;97402.16;;;26.30;100.00
18795;BME280;29610;49.022;12.114;2023-05-21T09:06:06;97411.44;;;26.95;100.00
18795;BME280;29610;49.022;12.114;2023-05-21T09:09:05;97405.69;;;27.63;100.00
18795;BME280;29610;49.022;12.114;2023-05-21T09:12:04;97405.53;;;27.98;100.00
18795;BME280;29610;49.022;12.114;2023-05-21T09:14:54;97402.41;;;28.09;100.00
18795;BME280;29610;49.022;12.114;2023-05-21T09:17:50;97394.47;;;28.07;100.00
18795;BME280;29610;49.022;12.114;2023-05-21T09:21:27;97400.63;;;28.56;100.00
18795;BME280;29610;49.022;12.114;2023-05-21T09:24:23;97395.44;;;29.17;100.00
18795;BME280;29610;49.022;12.114;2023-05-21T09:27:17;97393.13;;;29.50;100.00
18795;BME280;29610;49.022;12.114;2023-05-21T09:30:10;97399.38;;;28.95;100.00
18795;BME280;29610;49.022;12.114;2023-05-21T09:33:00;97390.31;;;29.16;86.77
18795;BME280;29610;49.022;12.114;2023-05-21T09:35:50;97388.25;;;29.29;97.57
18795;BME280;29610;49.022;12.114;2023-05-21T09:38:41;97392.72;;;29.39;89.12
18795;BME280;29610;49.022;12.114;2023-05-21T09:41:33;97399.41;;;29.41;85.85
18795;BME280;29610;49.022;12.114;2023-05-21T09:44:24;97391.50;;;29.74;83.21
18795;BME280;29610;49.022;12.114;2023-05-21T09:47:19;97389.53;;;29.15;84.87
18795;BME280;29610;49.022;12.114;2023-05-21T09:50:10;97393.13;;;28.53;86.75
18795;BME280;29610;49.022;12.114;2023-05-21T09:52:59;97396.59;;;27.75;96.11
18795;BME280;29610;49.022;12.114;2023-05-21T09:55:56;97391.75;;;27.91;91.63
18795;BME280;29610;49.022;12.114;2023-05-21T09:58:45;97395.50;;;28.67;85.74
18795;BME280;29610;49.022;12.114;2023-05-21T10:01:34;97383.59;;;29.13;81.88
18795;BME280;29610;49.022;12.114;2023-05-21T10:04:24;97382.63;;;29.41;78.73
18795;BME280;29610;49.022;12.114;2023-05-21T10:07:14;97383.13;;;29.61;80.10
18795;BME280;29610;49.022;12.114;2023-05-21T10:10:09;97380.56;;;30.32;72.11
18795;BME280;29610;49.022;12.114;2023-05-21T10:13:07;97383.28;;;30.44;75.10
18795;BME280;29610;49.022;12.114;2023-05-21T10:16:00;97382.31;;;30.17;79.95
18795;BME280;29610;49.022;12.114;2023-05-21T10:18:51;97376.56;;;29.98;80.17
18795;BME280;29610;49.022;12.114;2023-05-21T10:21:42;97371.72;;;30.42;71.39
18795;BME280;29610;49.022;12.114;2023-05-21T10:24:33;97369.28;;;30.01;74.61
18795;BME280;29610;49.022;12.114;2023-05-21T10:27:23;97382.50;;;30.00;65.91
18795;BME280;29610;49.022;12.114;2023-05-21T10:30:15;97376.19;;;29.87;68.13
18795;BME280;29610;49.022;12.114;2023-05-21T10:33:06;97366.53;;;30.32;71.44
18795;BME280;29610;49.022;12.114;2023-05-21T10:35:57;97377.19;;;30.46;64.85
18795;BME280;29610;49.022;12.114;2023-05-21T10:38:47;97370.97;;;30.81;68.53
18795;BME280;29610;49.022;12.114;2023-05-21T10:41:46;97368.28;;;31.17;68.48
18795;BME280;29610;49.022;12.114;2023-05-21T10:44:59;97374.97;;;29.88;68.83
18795;BME280;29610;49.022;12.114;2023-05-21T10:48:11;97374.47;;;30.12;68.30
18795;BME280;29610;49.022;12.114;2023-05-21T10:51:24;97369.22;;;29.92;65.81
18795;BME280;29610;49.022;12.114;2023-05-21T10:54:53;97368.84;;;30.64;64.90
18795;BME280;29610;49.022;12.114;2023-05-21T10:58:05;97368.09;;;31.03;60.95
18795;BME280;29610;49.022;12.114;2023-05-21T11:01:00;97366.84;;;31.04;64.05
18795;BME280;29610;49.022;12.114;2023-05-21T11:03:51;97370.38;;;31.44;55.49
18795;BME280;29610;49.022;12.114;2023-05-21T11:06:46;97355.84;;;31.73;48.15
18795;BME280;29610;49.022;12.114;2023-05-21T11:09:49;97353.69;;;31.59;52.46
18795;BME280;29610;49.022;12.114;2023-05-21T11:13:06;97364.63;;;32.61;48.67
18795;BME280;29610;49.022;12.114;2023-05-21T11:16:13;97366.13;;;32.21;51.49
18795;BME280;29610;49.022;12.114;2023-05-21T11:19:03;97363.50;;;31.81;46.63
18795;BME280;29610;49.022;12.114;2023-05-21T11:21:54;97363.59;;;32.41;47.24
18795;BME280;29610;49.022;12.114;2023-05-21T11:24:43;97366.91;;;32.21;51.64
18795;BME280;29610;49.022;12.114;2023-05-21T11:27:34;97358.22;;;31.92;48.66
18795;BME280;29610;49.022;12.114;2023-05-21T11:30:24;97356.22;;;30.99;50.10
18795;BME280;29610;49.022;12.114;2023-05-21T11:33:19;97352.94;;;30.91;50.56
18795;BME280;29610;49.022;12.114;2023-05-21T11:36:12;97365.41;;;30.60;53.66
18795;BME280;29610;49.022;12.114;2023-05-21T11:39:12;97361.09;;;30.37;54.26
18795;BME280;29610;49.022;12.114;2023-05-21T11:42:02;97361.72;;;30.72;59.45
18795;BME280;29610;49.022;12.114;2023-05-21T11:44:51;97359.66;;;31.03;52.43
18795;BME280;29610;49.022;12.114;2023-05-21T11:47:42;97352.31;;;30.87;54.06
18795;BME280;29610;49.022;12.114;2023-05-21T11:50:33;97355.75;;;31.00;57.58
18795;BME280;29610;49.022;12.114;2023-05-21T11:53:25;97361.78;;;31.57;58.81
18795;BME280;29610;49.022;12.114;2023-05-21T11:56:17;97360.06;;;31.68;54.58
18795;BME280;29610;49.022;12.114;2023-05-21T11:59:14;97353.72;;;30.22;52.72
18795;BME280;29610;49.022;12.114;2023-05-21T12:02:05;97358.50;;;30.43;57.45
18795;BME280;29610;49.022;12.114;2023-05-21T12:04:54;97347.97;;;30.95;56.46
18795;BME280;29610;49.022;12.114;2023-05-21T12:07:47;97356.97;;;31.48;57.11
18795;BME280;29610;49.022;12.114;2023-05-21T12:10:38;97347.13;;;31.80;50.65
18795;BME280;29610;49.022;12.114;2023-05-21T12:13:27;97348.06;;;31.86;51.83
18795;BME280;29610;49.022;12.114;2023-05-21T12:16:16;97357.19;;;31.14;53.01
18795;BME280;29610;49.022;12.114;2023-05-21T12:19:05;97354.56;;;31.28;49.92
18795;BME280;29610;49.022;12.114;2023-05-21T12:21:54;97352.31;;;30.57;50.80
18795;BME280;29610;49.022;12.114;2023-05-21T12:24:44;97351.03;;;31.64;50.67
18795;BME280;29610;49.022;12.114;2023-05-21T12:27:36;97348.53;;;32.86;47.58
18795;BME280;29610;49.022;12.114;2023-05-21T12:30:25;97347.09;;;32.99;49.42
18795;BME280;29610;49.022;12.114;2023-05-21T12:33:14;97347.97;;;33.76;44.73
18795;BME280;29610;49.022;12.114;2023-05-21T12:36:04;97345.22;;;34.49;47.92
18795;BME280;29610;49.022;12.114;2023-05-21T12:38:54;97344.16;;;33.64;44.47
18795;BME280;29610;49.022;12.114;2023-05-21T12:41:42;97348.44;;;34.56;44.40
18795;BME280;29610;49.022;12.114;2023-05-21T12:44:33;97337.78;;;35.15;44.51
18795;BME280;29610;49.022;12.114;2023-05-21T12:47:24;97345.13;;;35.07;40.05
18795;BME280;29610;49.022;12.114;2023-05-21T12:50:14;97343.13;;;34.78;38.85
18795;BME280;29610;49.022;12.114;2023-05-21T12:53:08;97344.00;;;35.19;44.45
18795;BME280;29610;49.022;12.114;2023-05-21T12:56:08;97338.94;;;36.09;39.98
18795;BME280;29610;49.022;12.114;2023-05-21T12:58:57;97339.47;;;36.13;41.30
18795;BME280;29610;49.022;12.114;2023-05-21T13:01:48;97342.66;;;35.95;40.87
18795;BME280;29610;49.022;12.114;2023-05-21T13:04:37;97339.53;;;36.18;39.01
18795;BME280;29610;49.022;12.114;2023-05-21T13:07:27;97343.47;;;34.37;38.37
18795;BME280;29610;49.022;12.114;2023-05-21T13:10:17;97346.53;;;33.42;45.11
18795;BME280;29610;49.022;12.114;2023-05-21T13:13:06;97336.22;;;33.77;43.49
18795;BME280;29610;49.022;12.114;2023-05-21T13:15:55;97347.22;;;33.28;45.61
18795;BME280;29610;49.022;12.114;2023-05-21T13:18:48;97331.38;;;31.64;45.40
18795;BME280;29610;49.022;12.114;2023-05-21T13:21:37;97336.66;;;32.07;46.34
18795;BME280;29610;49.022;12.114;2023-05-21T13:24:26;97340.81;;;32.39;48.36
18795;BME280;29610;49.022;12.114;2023-05-21T13:27:14;97333.00;;;31.16;48.26
18795;BME280;29610;49.022;12.114;2023-05-21T13:30:05;97332.53;;;31.18;46.25
18795;BME280;29610;49.022;12.114;2023-05-21T13:32:55;97330.72;;;31.33;47.59
18795;BME280;29610;49.022;12.114;2023-05-21T13:35:45;97337.69;;;30.92;47.55
18795;BME280;29610;49.022;12.114;2023-05-21T13:38:39;97331.84;;;31.45;49.05
18795;BME280;29610;49.022;12.114;2023-05-21T13:41:28;97337.22;;;32.20;52.21
18795;BME280;29610;49.022;12.114;2023-05-21T13:44:17;97330.88;;;32.52;46.82
18795;BME280;29610;49.022;12.114;2023-05-21T13:47:06;97331.41;;;33.07;48.19
18795;BME280;29610;49.022;12.114;2023-05-21T13:49:56;97328.22;;;33.61;49.30
18795;BME280;29610;49.022;12.114;2023-05-21T13:52:46;97320.19;;;33.83;47.96
18795;BME280;29610;49.022;12.114;2023-05-21T13:55:35;97321.13;;;33.66;45.30
18795;BME280;29610;49.022;12.114;2023-05-21T13:58:23;97325.56;;;34.11;47.51
18795;BME280;29610;49.022;12.114;2023-05-21T14:01:14;97315.81;;;34.55;43.92
18795;BME280;29610;49.022;12.114;2023-05-21T14:04:03;97317.34;;;34.71;43.74
18795;BME280;29610;49.022;12.114;2023-05-21T14:06:53;97326.75;;;34.82;42.18
18795;BME280;29610;49.022;12.114;2023-05-21T14:09:43;97319.75;;;34.92;43.40
18795;BME280;29610;49.022;12.114;2023-05-21T14:12:33;97311.34;;;34.49;42.42
18795;BME280;29610;49.022;12.114;2023-05-21T14:15:23;97319.25;;;34.59;41.88
18795;BME280;29610;49.022;12.114;2023-05-21T14:18:12;97312.69;;;34.68;41.65
18795;BME280;29610;49.022;12.114;2023-05-21T14:21:01;97314.28;;;33.43;41.41
18795;BME280;29610;49.022;12.114;2023-05-21T14:23:50;97314.19;;;33.14;41.05
18795;BME280;29610;49.022;12.114;2023-05-21T14:26:41;97310.91;;;33.07;41.54
18795;BME280;29610;49.022;12.114;2023-05-21T14:29:29;97312.25;;;32.97;41.96
18795;BME280;29610;49.022;12.114;2023-05-21T14:32:19;97306.00;;;32.09;42.67
18795;BME280;29610;49.022;12.114;2023-05-21T14:35:08;97309.22;;;32.35;43.43
18795;BME280;29610;49.022;12.114;2023-05-21T14:37:57;97308.75;;;32.45;43.96
18795;BME280;29610;49.022;12.114;2023-05-21T14:40:46;97301.53;;;31.94;41.61
18795;BME280;29610;49.022;12.114;2023-05-21T14:43:36;97293.00;;;30.67;44.45
18795;BME280;29610;49.022;12.114;2023-05-21T14:46:25;97302.28;;;30.86;46.31
18795;BME280;29610;49.022;12.114;2023-05-21T14:49:14;97299.03;;;31.23;48.70